SCC: Birmingham qualifying times

Pos Num Class Team Time Gap To 1st Speed --- --- ----- ------------------------------ ---------- ------- ------- ------- 1. 05 GS Multimatic Motorsports 1:37.262 85.131 2. 18...

Pos Num Class Team                                 Time     Gap  To 1st   Speed
--- --- ----- ------------------------------ ---------- ------- ------- -------
 1.  05 GS    Multimatic Motorsports           1:37.262                  85.131
 2.  18 GS    Race Prep Motorsports            1:37.370   0.108   0.108  85.036
 3.  81 GS    Synergy Racing                   1:38.029   0.659   0.767  84.465
 4.  17 GS    Doncaster Racing                 1:38.150   0.121   0.888  84.361
 5.  13 GS    Unitech Racing                   1:38.254   0.104   0.992  84.271
 6.  55 GS    Multimatic Motorsports           1:38.289   0.035   1.027  84.241
 7.  28 GS    Race Prep Motorsports            1:38.516   0.227   1.254  84.047
 8.  47 GS    TF Racing                        1:38.595   0.079   1.333  83.980
 9.  09 GS    Automatic Racing                 1:38.763   0.168   1.501  83.837
10.  38 GS    BGB Motorsports                  1:38.772   0.009   1.510  83.829
11.   4 GS    Blackforest Motorsports          1:38.787   0.015   1.525  83.817
12.   7 GS    Power Racing Team                1:38.812   0.025   1.550  83.795
13.  11 GS    Powell Motorsport                1:38.892   0.080   1.630  83.728
14.  69 GS    Krohn Racing/TRG                 1:38.956   0.064   1.694  83.674
15.  99 GS    Anchor Racing                    1:39.154   0.198   1.892  83.506
16.  21 GS    Bodymotion Racing                1:39.177   0.023   1.915  83.487
17.  35 GS    Schuitemaker Motorsports         1:39.194   0.017   1.932  83.473
18.  92 GS    Anchor Racing                    1:39.263   0.069   2.001  83.415
19.  89 GS    LNS Motorsports                  1:39.276   0.013   2.014  83.404
20.  93 GS    Anchor Racing                    1:39.427   0.151   2.165  83.277
21.  84 GS    DWW/GorillaRacing.com            1:39.434   0.007   2.172  83.271
22.  60 GS    Finlay Motorsports               1:39.441   0.007   2.179  83.265
23.  90 GS    Automatic Racing                 1:39.640   0.199   2.378  83.099
24.  16 GS    Zoom Motorsports                 1:39.663   0.023   2.401  83.080
25.  40 GS    Team Sahlen                      1:39.775   0.112   2.513  82.987
26.   6 GS    Zoom Motorsports                 1:40.255   0.480   2.993  82.589
27.  63 GS    Team RPM                         1:40.377   0.122   3.115  82.489
28.  07 GS    Powell Motorsport                1:40.390   0.013   3.128  82.478
29.  88 GS    Knobel Racing                    1:40.536   0.146   3.274  82.359
30.  70 ST    SpeedSource                      1:40.806   0.270   3.544  82.138
31.  91 GS    Fiorano Racing                   1:41.241   0.435   3.979  81.785
32.  44 GS    Team Sahlen                      1:41.310   0.069   4.048  81.729
33.  95 ST    Turner Motorsports               1:41.361   0.051   4.099  81.688
34.  27 ST    Bill Fenton Motorsports          1:41.375   0.014   4.113  81.677
35.  64 ST    Matt Connolly Motorsports        1:41.756   0.381   4.494  81.371
36.  98 ST    Stewart Motorsports              1:41.995   0.239   4.733  81.180
37.  12 ST    TC Kline Racing                  1:42.161   0.166   4.899  81.049
38.  00 ST    Georgian Bay Motorsports         1:42.212   0.051   4.950  81.008
39.  06 ST    Compass360/Racing                1:42.216   0.004   4.954  81.005
40.  97 ST    Turner Motorsports               1:42.363   0.147   5.101  80.889
41.  39 ST    Matt Connolly Motorsports        1:42.569   0.206   5.307  80.726
42.  71 ST    TC Kline Racing                  1:42.648   0.079   5.386  80.664
43.  32 ST    Franklin American                1:43.053   0.405   5.791  80.347
44.  29 ST    Bill Fenton Motorsports          1:43.391   0.338   6.129  80.084
45.  73 GS    RTG Motorsports                  1:43.410   0.019   6.148  80.070
46.  50 ST    Southpaw Racing                  1:43.551   0.141   6.289  79.961
47.  20 ST    Nuzzo Motorsports                1:43.715   0.164   6.453  79.834
48.  94 ST    Radial Motorsports               1:44.087   0.372   6.825  79.549
49.  67 ST    SpeedSource                      1:44.268   0.181   7.006  79.411
50.  36 ST    Compass360/Racing                1:44.639   0.371   7.377  79.129
51.  66 ST    SpeedSource                      1:44.732   0.093   7.470  79.059
52.  46 ST    Franklin American Mortgage       1:44.955   0.223   7.693  78.891
53.  72 ST    Anchor Racing                    1:45.055   0.100   7.793  78.816
54.  25 ST    HBAR Motorsports                 1:47.673   2.618  10.411  76.900
55.   5 GS    Blackforest Motorsports           No Time
56.  10 GS    Champion Motorsports              No Time
57.  43 GS    Team Sahlen                       No Time
58.  45 GS    Autometrics Motorsports           No Time
59.  52 GS    Rehagen Racing                    No Time
60.  58 GS    Rehagen Racing                    No Time
61.  68 ST    SpeedSource                       No Time
62.  96 GS    Turner Motorsport                 No Time
63.  01 ST    Georgian Bay Motorsports          No Time

Be part of something big

Write a comment
Show comments
About this article
Series Grand-Am
Drivers Matt Connolly , Bill Fenton
Teams Krohn Racing , Autometrics Motorsports , Rehagen Racing , Turner Motorsport , Team Sahlen , Multimatic Motorsports , Automatic Racing , Bodymotion Racing , SpeedSource